Time;durP1;ratioP1;P1;durP2;ratioP2;P2;SDS_P1;SDS_P2;PMS_P1;PMS_P2;Temp;Humidity;BMP_temperature;BMP_pressure;BME280_temperature;BME280_humidity;BME280_pressure;Samples;Min_cycle;Max_cycle;Signal;HPM_P1;HPM_P2
2023/08/02 00:02:15;;;;;;;11.20;4.35;;;;;;;16.39;100.00;99811.03;5112989;28;20131;-48
2023/08/02 00:04:41;;;;;;;12.75;4.95;;;;;;;16.51;100.00;99846.47;5112218;28;20126;-49
2023/08/02 00:07:07;;;;;;;11.55;5.18;;;;;;;16.26;100.00;99796.94;5095828;28;20050;-51
2023/08/02 00:09:32;;;;;;;11.27;4.75;;;;;;;16.24;100.00;99789.09;5113833;28;20471;-50
2023/08/02 00:11:58;;;;;;;12.73;4.80;;;;;;;16.22;100.00;99796.31;5111922;28;20069;-52
2023/08/02 00:14:24;;;;;;;11.45;5.05;;;;;;;16.21;100.00;99799.06;5095111;28;20453;-50
2023/08/02 00:16:49;;;;;;;12.00;5.00;;;;;;;16.43;100.00;99836.44;5114039;28;20031;-45
2023/08/02 00:19:15;;;;;;;13.82;4.68;;;;;;;16.56;100.00;99884.22;5114122;28;20534;-47
2023/08/02 00:21:40;;;;;;;9.52;4.13;;;;;;;16.54;100.00;99876.38;5094218;28;20051;-50
2023/08/02 00:24:06;;;;;;;10.45;4.93;;;;;;;16.43;100.00;99865.66;5113876;28;20019;-46
2023/08/02 00:26:32;;;;;;;11.68;4.90;;;;;;;16.44;100.00;99871.78;5107147;28;20399;-46
2023/08/02 00:28:57;;;;;;;12.95;5.30;;;;;;;16.36;100.00;99864.38;5075431;28;20024;-47
2023/08/02 00:31:22;;;;;;;11.00;4.60;;;;;;;15.92;100.00;99802.94;5104893;28;20114;-50
2023/08/02 00:33:48;;;;;;;13.40;4.60;;;;;;;16.33;100.00;99876.06;5113502;28;20027;-50
2023/08/02 00:36:13;;;;;;;11.73;4.50;;;;;;;16.38;100.00;99874.88;5110986;28;20043;-48
2023/08/02 00:38:38;;;;;;;14.00;5.00;;;;;;;16.33;100.00;99848.66;5093046;28;20034;-52
2023/08/02 00:41:07;;;;;;;12.13;4.82;;;;;;;16.36;100.00;99866.16;5094914;28;20040;-47
2023/08/02 00:43:40;;;;;;;13.70;5.07;;;;;;;16.24;100.00;99842.19;5113297;28;20032;-48
2023/08/02 00:46:06;;;;;;;8.13;4.40;;;;;;;16.03;100.00;99789.75;5111896;28;20044;-48
2023/08/02 00:48:32;;;;;;;11.98;5.00;;;;;;;16.42;100.00;99844.47;5113048;28;20032;-48
2023/08/02 00:50:58;;;;;;;9.90;4.88;;;;;;;16.48;100.00;99866.16;5094790;28;20520;-50
2023/08/02 00:53:23;;;;;;;8.00;4.25;;;;;;;16.54;100.00;99851.59;5113303;28;20118;-48
2023/08/02 00:55:49;;;;;;;12.55;4.68;;;;;;;16.41;100.00;99842.78;5112847;28;20038;-50
2023/08/02 00:58:14;;;;;;;11.00;5.05;;;;;;;15.70;100.00;99708.13;5076257;28;20067;-52
2023/08/02 01:00:39;;;;;;;12.10;5.22;;;;;;;16.23;100.00;99784.72;5092861;28;20443;-47
2023/08/02 01:03:05;;;;;;;12.57;5.97;;;;;;;16.65;100.00;99833.06;5092725;28;20047;-49
2023/08/02 01:05:35;;;;;;;11.65;4.88;;;;;;;16.38;100.00;99782.75;5074500;28;20085;-52
2023/08/02 01:08:02;;;;;;;10.38;4.93;;;;;;;16.49;100.00;99803.25;5107817;28;20401;-46
2023/08/02 01:10:46;;;;;;;13.45;5.28;;;;;;;16.54;100.00;99795.81;5094662;28;20051;-51
2023/08/02 01:13:14;;;;;;;11.00;5.25;;;;;;;16.74;100.00;99830.59;5095067;28;20047;-51
2023/08/02 01:15:39;;;;;;;10.80;4.82;;;;;;;16.36;100.00;99751.97;5094873;28;20710;-47
2023/08/02 01:18:05;;;;;;;7.53;4.65;;;;;;;16.66;100.00;99800.25;5095708;28;20177;-50
2023/08/02 01:20:30;;;;;;;13.77;4.85;;;;;;;16.32;100.00;99738.91;5092364;28;20048;-47
2023/08/02 01:22:56;;;;;;;12.05;5.30;;;;;;;16.53;100.00;99780.81;5091977;28;20043;-49
2023/08/02 01:25:22;;;;;;;10.55;4.90;;;;;;;16.29;100.00;99744.44;5091972;28;20051;-47
2023/08/02 01:27:51;;;;;;;16.58;5.72;;;;;;;16.68;100.00;99814.25;5104794;28;20092;-54
2023/08/02 01:30:18;;;;;;;12.48;5.38;;;;;;;16.65;100.00;99804.69;5112754;28;20359;-49
2023/08/02 01:32:44;;;;;;;11.32;4.93;;;;;;;16.61;100.00;99787.28;5094881;28;20414;-50
2023/08/02 01:35:10;;;;;;;12.35;5.18;;;;;;;16.09;100.00;99694.63;5092244;28;20032;-48
2023/08/02 01:37:35;;;;;;;13.48;4.30;;;;;;;16.60;100.00;99782.94;5084127;28;20039;-51
2023/08/02 01:40:02;;;;;;;9.10;4.38;;;;;;;16.70;100.00;99793.72;5112200;28;20074;-53
2023/08/02 01:42:27;;;;;;;9.52;4.28;;;;;;;16.71;100.00;99771.50;5094192;28;20043;-49
2023/08/02 01:44:53;;;;;;;10.68;4.70;;;;;;;16.23;100.00;99696.25;5094325;28;20028;-50
2023/08/02 01:47:18;;;;;;;10.75;4.38;;;;;;;16.28;100.00;99708.25;5111490;28;20031;-50
2023/08/02 01:49:43;;;;;;;8.82;4.55;;;;;;;16.62;100.00;99751.78;5093942;28;20118;-55
2023/08/02 01:52:09;;;;;;;13.18;5.15;;;;;;;16.74;100.00;99769.47;5110828;28;20035;-52
2023/08/02 01:54:35;;;;;;;15.63;5.43;;;;;;;16.74;100.00;99769.47;5111918;28;20036;-51
2023/08/02 01:57:00;;;;;;;10.68;4.85;;;;;;;16.26;100.00;99670.31;5111328;28;20122;-53
2023/08/02 01:59:25;;;;;;;14.25;6.07;;;;;;;16.63;100.00;99742.88;5112555;28;20543;-47
2023/08/02 02:01:51;;;;;;;9.05;5.20;;;;;;;16.49;100.00;99727.03;5111655;28;20039;-52
2023/08/02 02:04:16;;;;;;;9.93;4.80;;;;;;;16.52;100.00;99718.03;5112439;28;20056;-53
2023/08/02 02:06:41;;;;;;;8.48;5.00;;;;;;;16.05;100.00;99631.25;5108789;28;20553;-47
2023/08/02 02:09:06;;;;;;;11.80;5.32;;;;;;;16.43;100.00;99711.59;5092179;28;20036;-48
2023/08/02 02:11:32;;;;;;;10.60;5.05;;;;;;;16.30;100.00;99681.56;5073560;28;20036;-46
2023/08/02 02:13:57;;;;;;;9.57;4.72;;;;;;;16.39;100.00;99695.97;5092006;28;20032;-51
2023/08/02 02:16:22;;;;;;;9.50;5.05;;;;;;;16.34;100.00;99713.09;5073762;28;20043;-49
2023/08/02 02:18:48;;;;;;;12.40;5.00;;;;;;;16.18;100.00;99674.50;5090346;28;20039;-48
2023/08/02 02:21:13;;;;;;;14.52;5.22;;;;;;;15.99;100.00;99634.38;5111814;28;20048;-48
2023/08/02 02:23:38;;;;;;;9.82;4.70;;;;;;;15.78;100.00;99604.94;5112250;28;20136;-47
2023/08/02 02:26:04;;;;;;;12.25;5.40;;;;;;;15.73;100.00;99604.44;5112452;28;20036;-47
2023/08/02 02:28:29;;;;;;;13.75;5.10;;;;;;;15.65;100.00;99593.50;5111065;28;20039;-48
2023/08/02 02:30:56;;;;;;;11.57;5.35;;;;;;;16.06;100.00;99660.34;5093044;28;20035;-51
2023/08/02 02:33:22;;;;;;;8.98;5.07;;;;;;;16.06;100.00;99662.97;5112042;28;20036;-47
2023/08/02 02:35:47;;;;;;;11.13;4.97;;;;;;;16.04;100.00;99664.06;5112007;28;20046;-47
2023/08/02 02:38:12;;;;;;;17.63;4.93;;;;;;;16.02;100.00;99653.56;5099510;28;20040;-50
2023/08/02 02:40:38;;;;;;;11.45;4.28;;;;;;;15.99;100.00;99648.50;5060625;28;20127;-48
2023/08/02 02:43:03;;;;;;;12.27;4.88;;;;;;;15.51;100.00;99573.31;5095498;28;20464;-46
2023/08/02 02:45:28;;;;;;;12.95;5.20;;;;;;;15.97;100.00;99661.00;5095324;28;20089;-54
2023/08/02 02:47:54;;;;;;;13.18;5.07;;;;;;;15.86;100.00;99642.38;5105576;28;20043;-51
2023/08/02 02:50:20;;;;;;;10.85;4.88;;;;;;;15.92;100.00;99649.88;5115519;28;20035;-53
2023/08/02 02:52:45;;;;;;;15.15;5.50;;;;;;;15.51;100.00;99585.72;5115516;28;20435;-52
2023/08/02 02:55:10;;;;;;;8.93;4.50;;;;;;;15.45;100.00;99580.81;5115673;28;20483;-49
2023/08/02 02:57:36;;;;;;;11.52;4.93;;;;;;;15.92;100.00;99638.41;5106526;28;20390;-50
2023/08/02 03:00:01;;;;;;;11.40;4.70;;;;;;;15.73;100.00;99591.16;5095412;28;20335;-47
2023/08/02 03:02:26;;;;;;;14.30;4.53;;;;;;;15.80;100.00;99591.53;5076410;28;20115;-50
2023/08/02 03:04:52;;;;;;;14.23;5.50;;;;;;;15.94;100.00;99602.84;5094695;28;20036;-50
2023/08/02 03:07:17;;;;;;;11.32;4.63;;;;;;;15.51;100.00;99511.44;5099301;28;20050;-51
2023/08/02 03:09:42;;;;;;;8.70;4.97;;;;;;;16.05;100.00;99580.81;5097347;28;20059;-47
2023/08/02 03:12:08;;;;;;;12.93;4.45;;;;;;;16.01;100.00;99579.34;5115354;28;20491;-50
2023/08/02 03:14:33;;;;;;;18.25;4.40;;;;;;;16.03;100.00;99567.66;5114409;28;20042;-52
2023/08/02 03:16:59;;;;;;;11.65;4.88;;;;;;;16.02;100.00;99571.28;5114080;28;20028;-50
2023/08/02 03:19:24;;;;;;;13.13;5.15;;;;;;;16.03;100.00;99558.84;5096994;28;20035;-47
2023/08/02 03:21:49;;;;;;;11.75;4.45;;;;;;;16.02;100.00;99565.97;5115230;28;20090;-51
2023/08/02 03:24:15;;;;;;;14.10;5.25;;;;;;;16.04;100.00;99563.19;5115188;28;20150;-51
2023/08/02 03:26:40;;;;;;;8.63;4.13;;;;;;;16.04;100.00;99563.19;5114927;28;20126;-50
2023/08/02 03:29:05;;;;;;;13.75;4.60;;;;;;;16.04;100.00;99549.94;5094011;28;20081;-52
2023/08/02 03:31:30;;;;;;;18.63;5.95;;;;;;;15.57;100.00;99452.66;5094517;28;20067;-47
2023/08/02 03:33:56;;;;;;;10.13;5.15;;;;;;;15.50;100.00;99446.94;5076310;28;20062;-53
2023/08/02 03:36:21;;;;;;;16.48;5.40;;;;;;;15.99;100.00;99521.09;5075964;28;20036;-49
2023/08/02 03:38:46;;;;;;;11.43;5.40;;;;;;;16.07;100.00;99537.28;5075894;28;20043;-50
2023/08/02 03:41:12;;;;;;;15.55;5.57;;;;;;;15.63;100.00;99453.06;5094443;28;20042;-51
2023/08/02 03:43:37;;;;;;;13.70;5.97;;;;;;;16.13;100.00;99520.88;5094363;28;20100;-52
2023/08/02 03:46:02;;;;;;;11.45;5.53;;;;;;;15.68;100.00;99442.09;5075946;28;20143;-47
2023/08/02 03:48:28;;;;;;;14.77;7.20;;;;;;;16.12;100.00;99519.19;5106186;28;20032;-48
2023/08/02 03:50:55;;;;;;;14.00;5.93;;;;;;;16.14;100.00;99516.44;5113734;28;20394;-52
2023/08/02 03:53:20;;;;;;;13.30;6.13;;;;;;;16.15;100.00;99500.38;5096188;28;20080;-52
2023/08/02 03:55:45;;;;;;;13.18;6.38;;;;;;;16.13;100.00;99504.97;5114474;28;20043;-48
2023/08/02 03:58:11;;;;;;;14.75;6.97;;;;;;;16.02;100.00;99486.34;5101126;28;20045;-49
2023/08/02 04:00:36;;;;;;;16.15;7.65;;;;;;;15.66;100.00;99409.53;5093733;28;20047;-52
2023/08/02 04:03:02;;;;;;;14.57;7.30;;;;;;;16.15;100.00;99481.78;5075651;28;20040;-48
2023/08/02 04:05:27;;;;;;;15.00;6.95;;;;;;;16.16;100.00;99475.53;5094047;28;20298;-51
2023/08/02 04:07:52;;;;;;;13.50;6.82;;;;;;;15.69;100.00;99386.28;5101078;28;20039;-47
2023/08/02 04:10:18;;;;;;;16.88;7.50;;;;;;;16.19;100.00;99466.47;5093567;28;20028;-49
2023/08/02 04:12:43;;;;;;;20.83;8.13;;;;;;;15.77;100.00;99377.72;5075251;28;20028;-46
2023/08/02 04:15:09;;;;;;;16.50;8.40;;;;;;;16.21;100.00;99449.47;5093435;28;20036;-47
2023/08/02 04:17:34;;;;;;;15.07;7.30;;;;;;;16.19;100.00;99431.97;5092554;28;20036;-54
2023/08/02 04:20:01;;;;;;;17.13;7.55;;;;;;;16.18;100.00;99447.03;5093715;28;20421;-48
2023/08/02 04:22:26;;;;;;;15.35;7.38;;;;;;;15.71;100.00;99360.47;5093635;28;20559;-54
2023/08/02 04:24:51;;;;;;;15.60;7.13;;;;;;;16.15;100.00;99427.84;5093422;28;20028;-49
2023/08/02 04:27:17;;;;;;;13.30;6.75;;;;;;;16.17;100.00;99420.63;5074558;28;20062;-49
2023/08/02 04:29:42;;;;;;;15.23;7.00;;;;;;;15.59;100.00;99315.47;5095020;28;20200;-47
2023/08/02 04:32:07;;;;;;;15.45;6.60;;;;;;;16.12;100.00;99397.06;5094700;28;20035;-51
2023/08/02 04:34:32;;;;;;;16.63;7.18;;;;;;;16.04;100.00;99372.09;5113081;28;20077;-46
2023/08/02 04:36:58;;;;;;;12.77;6.53;;;;;;;16.11;100.00;99392.72;5093891;28;20043;-52
2023/08/02 04:39:23;;;;;;;14.95;6.35;;;;;;;15.60;100.00;99309.19;5113735;28;20032;-50
2023/08/02 04:41:53;;;;;;;11.60;6.55;;;;;;;15.57;100.00;99298.81;5113656;28;20059;-50
2023/08/02 04:44:19;;;;;;;10.07;5.60;;;;;;;16.02;100.00;99366.06;5095198;28;20062;-49
2023/08/02 04:46:44;;;;;;;12.93;6.05;;;;;;;15.99;100.00;99358.34;5113117;28;20332;-47
2023/08/02 04:49:09;;;;;;;12.18;6.70;;;;;;;15.95;100.00;99352.44;5111633;28;20550;-47
2023/08/02 04:51:37;;;;;;;12.30;6.68;;;;;;;15.94;100.00;99357.84;5113222;28;20028;-51
2023/08/02 04:54:03;;;;;;;13.38;7.20;;;;;;;15.84;100.00;99339.16;5113248;28;20035;-48
2023/08/02 04:56:28;;;;;;;14.73;7.03;;;;;;;15.85;100.00;99340.81;5095038;28;20044;-53
2023/08/02 04:58:54;;;;;;;12.75;6.07;;;;;;;15.38;100.00;99261.41;5096247;28;20044;-49
2023/08/02 05:01:19;;;;;;;10.43;6.43;;;;;;;15.80;100.00;99327.06;5102929;28;20039;-46
2023/08/02 05:03:46;;;;;;;12.82;6.20;;;;;;;15.57;100.00;99285.56;5113061;28;20055;-52
2023/08/02 05:06:11;;;;;;;11.43;6.25;;;;;;;15.30;100.00;99231.97;5102949;28;20051;-47
2023/08/02 05:08:37;;;;;;;14.65;6.78;;;;;;;15.74;100.00;99291.25;5086551;28;20043;-50
2023/08/02 05:11:06;;;;;;;11.57;7.13;;;;;;;15.52;100.00;99240.84;5113065;28;20028;-47
2023/08/02 05:13:32;;;;;;;11.57;6.68;;;;;;;15.38;100.00;99211.03;5112960;28;20078;-47
2023/08/02 05:15:57;;;;;;;11.38;7.47;;;;;;;15.32;100.00;99201.75;5093914;28;20035;-50
2023/08/02 05:18:23;;;;;;;11.18;7.32;;;;;;;15.67;100.00;99268.00;5111972;28;20406;-54
2023/08/02 05:20:49;;;;;;;12.18;7.53;;;;;;;15.46;100.00;99222.72;5093825;28;20044;-49
2023/08/02 05:23:14;;;;;;;12.82;6.95;;;;;;;15.25;100.00;99184.63;5094618;28;20081;-53
2023/08/02 05:25:41;;;;;;;11.88;7.45;;;;;;;15.25;100.00;99192.56;5112885;28;20506;-49
2023/08/02 05:28:07;;;;;;;16.67;7.80;;;;;;;15.23;100.00;99180.41;5093509;28;20123;-51
2023/08/02 05:30:33;;;;;;;15.23;8.07;;;;;;;15.40;100.00;99195.84;5094558;28;20106;-50
2023/08/02 05:32:58;;;;;;;9.85;7.40;;;;;;;15.32;100.00;99177.03;5112551;28;20039;-47
2023/08/02 05:35:25;;;;;;;8.63;6.72;;;;;;;15.40;100.00;99191.38;5112715;28;20039;-48
2023/08/02 05:37:51;;;;;;;13.00;7.22;;;;;;;15.59;100.00;99212.03;5111758;28;20062;-49
2023/08/02 05:40:16;;;;;;;17.08;8.30;;;;;;;15.64;100.00;99220.50;5112598;28;20054;-54
2023/08/02 05:42:42;;;;;;;12.18;7.60;;;;;;;15.23;100.00;99138.00;5094465;28;20055;-50
2023/08/02 05:45:09;;;;;;;15.15;8.05;;;;;;;15.28;100.00;99144.63;5094318;28;20039;-50
2023/08/02 05:47:35;;;;;;;11.50;7.80;;;;;;;15.78;100.00;99241.47;5087846;28;20028;-53
2023/08/02 05:50:00;;;;;;;9.82;7.70;;;;;;;15.75;100.00;99231.09;5092353;28;20035;-46
2023/08/02 05:52:25;;;;;;;10.77;7.10;;;;;;;15.72;100.00;99210.09;5092282;28;20032;-48
2023/08/02 05:54:51;;;;;;;11.60;7.28;;;;;;;15.35;100.00;99143.19;5092144;28;20036;-53
2023/08/02 05:57:16;;;;;;;10.40;7.85;;;;;;;15.77;100.00;99202.63;5095016;28;20063;-48
2023/08/02 05:59:42;;;;;;;12.82;8.20;;;;;;;15.77;100.00;99203.47;5106540;28;20074;-51
2023/08/02 06:02:07;;;;;;;9.70;7.40;;;;;;;15.30;100.00;99115.34;5112314;28;20147;-47
2023/08/02 06:04:35;;;;;;;8.82;7.00;;;;;;;15.35;100.00;99114.03;5112605;28;20078;-50
2023/08/02 06:07:00;;;;;;;11.45;7.88;;;;;;;15.30;100.00;99102.94;5110685;28;20035;-51
2023/08/02 06:09:26;;;;;;;11.25;7.43;;;;;;;15.75;100.00;99184.19;5092118;28;20500;-49
2023/08/02 06:11:51;;;;;;;10.75;6.85;;;;;;;15.37;100.00;99111.25;5092253;28;20394;-49
2023/08/02 06:14:16;;;;;;;8.77;6.63;;;;;;;15.73;100.00;99164.06;5095940;28;20459;-52
2023/08/02 06:16:42;;;;;;;10.40;6.72;;;;;;;15.68;100.00;99156.44;5095825;28;20036;-52
2023/08/02 06:19:08;;;;;;;7.72;5.95;;;;;;;15.73;100.00;99151.63;5077296;28;20079;-48
2023/08/02 06:21:34;;;;;;;9.93;6.68;;;;;;;15.39;100.00;99083.66;5095875;28;20135;-50
2023/08/02 06:24:00;;;;;;;8.88;5.93;;;;;;;15.31;100.00;99064.00;5077912;28;20032;-50
2023/08/02 06:26:25;;;;;;;12.00;6.50;;;;;;;15.69;100.00;99113.06;5095479;28;20097;-54
2023/08/02 06:28:50;;;;;;;9.38;6.07;;;;;;;15.72;100.00;99110.16;5112625;28;20402;-54
2023/08/02 06:31:16;;;;;;;11.20;7.35;;;;;;;15.45;100.00;99050.50;5115697;28;20040;-53
2023/08/02 06:33:41;;;;;;;11.23;6.53;;;;;;;15.39;100.00;99022.66;5115879;28;20035;-53
2023/08/02 06:36:06;;;;;;;18.00;7.72;;;;;;;15.68;100.00;99073.38;5115594;28;20092;-50
2023/08/02 06:38:32;;;;;;;15.63;7.05;;;;;;;15.72;100.00;99064.22;5082401;28;20543;-48
2023/08/02 06:40:58;;;;;;;9.52;6.80;;;;;;;15.77;100.00;99072.63;5095045;28;20036;-48
2023/08/02 06:43:23;;;;;;;10.30;6.72;;;;;;;15.84;100.00;99062.38;5087951;28;20110;-51
2023/08/02 06:45:48;;;;;;;9.90;5.88;;;;;;;15.90;100.00;99072.47;5114561;28;20039;-49
2023/08/02 06:48:18;;;;;;;7.22;5.40;;;;;;;15.98;100.00;99080.66;5094672;28;20048;-56
2023/08/02 06:50:43;;;;;;;12.40;6.22;;;;;;;15.98;100.00;99054.97;5115450;28;20023;-53
2023/08/02 06:53:08;;;;;;;10.45;5.75;;;;;;;15.58;100.00;98983.13;5115191;28;20484;-47
2023/08/02 06:55:34;;;;;;;7.85;5.60;;;;;;;15.95;100.00;99030.47;5114717;28;20126;-46
2023/08/02 06:57:59;;;;;;;6.70;5.00;;;;;;;15.66;100.00;98962.13;5105290;28;20107;-56
2023/08/02 07:00:24;;;;;;;6.18;4.88;;;;;;;16.09;100.00;99024.88;5114498;28;20463;-48
2023/08/02 07:02:50;;;;;;;4.95;4.03;;;;;;;15.65;100.00;98928.59;5114292;28;20367;-50
2023/08/02 07:05:15;;;;;;;6.25;3.90;;;;;;;16.16;100.00;99003.00;5115550;28;20059;-48
2023/08/02 07:07:40;;;;;;;4.20;3.67;;;;;;;16.04;100.00;98974.00;5114214;28;20028;-51
2023/08/02 07:10:06;;;;;;;5.97;3.60;;;;;;;16.03;100.00;98956.38;5115205;28;20032;-48
2023/08/02 07:12:31;;;;;;;4.78;3.53;;;;;;;15.86;100.00;98918.00;5097070;28;20028;-52
2023/08/02 07:14:56;;;;;;;3.95;3.45;;;;;;;16.27;100.00;98980.84;5115124;28;20023;-51
2023/08/02 07:17:22;;;;;;;4.80;3.78;;;;;;;16.19;100.00;98962.09;5095969;28;20024;-52
2023/08/02 07:19:48;;;;;;;4.55;3.78;;;;;;;15.84;100.00;98889.91;5096559;28;20035;-51
2023/08/02 07:22:17;;;;;;;4.13;3.80;;;;;;;16.29;100.00;98963.81;5114253;28;20047;-57
2023/08/02 07:24:43;;;;;;;4.70;3.75;;;;;;;16.17;100.00;98932.19;5095558;28;20379;-49
2023/08/02 07:27:09;;;;;;;5.00;4.07;;;;;;;15.88;100.00;98880.75;5114050;28;20051;-51
2023/08/02 07:29:35;;;;;;;4.63;3.42;;;;;;;15.90;100.00;98868.19;5105795;28;20071;-49
2023/08/02 07:32:00;;;;;;;8.55;3.50;;;;;;;16.36;100.00;98942.06;5094706;28;20464;-50
2023/08/02 07:34:26;;;;;;;3.28;3.08;;;;;;;16.28;100.00;98930.28;5076225;28;20036;-57
2023/08/02 07:36:51;;;;;;;3.58;2.60;;;;;;;16.28;100.00;98913.53;5094397;28;20047;-55
2023/08/02 07:39:16;;;;;;;3.08;2.78;;;;;;;16.37;100.00;98931.31;5114695;28;20088;-51
2023/08/02 07:41:42;;;;;;;3.03;2.72;;;;;;;16.26;100.00;98920.75;5105877;28;20036;-55
2023/08/02 07:44:07;;;;;;;3.70;3.40;;;;;;;15.94;100.00;98838.59;5094033;28;20042;-53
2023/08/02 07:46:32;;;;;;;3.00;2.80;;;;;;;16.00;100.00;98853.13;5093769;28;20059;-51
2023/08/02 07:48:58;;;;;;;2.75;2.55;;;;;;;16.38;100.00;98916.19;5112695;28;20436;-56
2023/08/02 07:51:23;;;;;;;2.92;2.72;;;;;;;16.38;100.00;98914.41;5114633;28;20035;-57
2023/08/02 07:53:49;;;;;;;3.03;2.80;;;;;;;15.99;100.00;98840.88;5114545;28;20028;-57
2023/08/02 07:56:14;;;;;;;2.33;2.13;;;;;;;16.40;100.00;98917.78;5113882;28;20039;-50
2023/08/02 07:58:39;;;;;;;3.05;2.85;;;;;;;16.43;100.00;98909.53;5112534;28;20130;-50
2023/08/02 08:01:08;;;;;;;2.10;1.92;;;;;;;16.09;100.00;98837.28;5114622;28;20106;-51
2023/08/02 08:03:34;;;;;;;2.30;1.83;;;;;;;15.99;100.00;98816.97;5079378;28;20414;-49
2023/08/02 08:06:00;;;;;;;2.83;2.00;;;;;;;16.49;100.00;98895.72;5095880;28;20046;-48
2023/08/02 08:08:25;;;;;;;1.70;1.60;;;;;;;16.11;100.00;98824.69;5113330;28;20088;-54
2023/08/02 08:10:51;;;;;;;1.83;1.70;;;;;;;16.12;100.00;98810.47;5114084;28;20042;-54
2023/08/02 08:13:16;;;;;;;1.98;1.85;;;;;;;16.58;100.00;98863.06;5114012;28;20054;-55
2023/08/02 08:15:42;;;;;;;1.70;1.60;;;;;;;16.69;100.00;98875.44;5113998;28;20028;-56
2023/08/02 08:18:07;;;;;;;6.75;1.92;;;;;;;16.71;100.00;98873.47;5094343;28;20040;-53
2023/08/02 08:20:32;;;;;;;1.70;1.60;;;;;;;16.79;100.00;98884.25;5113703;28;20047;-50
2023/08/02 08:22:58;;;;;;;2.95;1.80;;;;;;;16.49;100.00;98799.28;5095614;28;20027;-49
2023/08/02 08:25:23;;;;;;;1.90;1.70;;;;;;;17.09;100.00;98854.09;5113654;28;20032;-51
2023/08/02 08:27:48;;;;;;;1.70;1.60;;;;;;;17.25;100.00;98849.09;5109280;28;20035;-53
2023/08/02 08:30:14;;;;;;;1.50;1.40;;;;;;;16.97;100.00;98784.28;5093530;28;20089;-49
2023/08/02 08:32:39;;;;;;;1.83;1.73;;;;;;;17.46;100.00;98825.81;5093160;28;20089;-52
2023/08/02 08:35:05;;;;;;;2.38;1.70;;;;;;;17.60;100.00;98825.41;5092245;28;20032;-48
2023/08/02 08:37:31;;;;;;;1.80;1.70;;;;;;;17.88;100.00;98837.84;5111679;28;20028;-53
2023/08/02 08:39:56;;;;;;;2.10;1.90;;;;;;;17.92;100.00;98822.44;5113198;28;20062;-53
2023/08/02 08:42:22;;;;;;;2.28;2.08;;;;;;;18.30;100.00;98826.78;5101989;28;20077;-56
2023/08/02 08:44:47;;;;;;;2.20;2.00;;;;;;;18.50;100.00;98813.22;5074917;28;20062;-54
2023/08/02 08:47:14;;;;;;;2.28;1.75;;;;;;;18.52;100.00;98813.09;5074980;28;20032;-55
2023/08/02 08:49:39;;;;;;;2.28;2.00;;;;;;;18.17;100.00;98757.03;5105623;28;20031;-49
2023/08/02 08:52:06;;;;;;;2.33;2.13;;;;;;;18.10;100.00;98759.44;5095271;28;20046;-53
2023/08/02 08:54:32;;;;;;;1.80;1.70;;;;;;;18.32;100.00;98806.16;5074490;28;20032;-53
2023/08/02 08:56:58;;;;;;;2.15;1.95;;;;;;;18.37;100.00;98818.03;5074691;28;20028;-55
2023/08/02 08:59:25;;;;;;;2.55;1.92;;;;;;;18.19;100.00;98763.88;5074651;28;20490;-56
2023/08/02 09:01:50;;;;;;;2.38;2.17;;;;;;;17.90;100.00;98721.41;5074827;28;20104;-52
2023/08/02 09:04:16;;;;;;;4.65;2.10;;;;;;;17.77;100.00;98718.25;5074776;28;20548;-55
2023/08/02 09:06:41;;;;;;;2.50;2.30;;;;;;;17.88;100.00;98751.81;5068198;28;20039;-51
2023/08/02 09:09:07;;;;;;;2.58;2.30;;;;;;;18.14;100.00;98810.56;5092652;28;20394;-50
2023/08/02 09:11:33;;;;;;;2.78;2.58;;;;;;;17.98;100.00;98766.75;5092601;28;20459;-50
2023/08/02 09:14:12;;;;;;;2.35;2.15;;;;;;;18.14;100.00;98792.78;5074400;28;20032;-51
2023/08/02 09:16:57;;;;;;;2.70;2.50;;;;;;;18.30;100.00;98787.63;5092678;28;20034;-50
2023/08/02 09:19:24;;;;;;;3.30;2.97;;;;;;;18.10;100.00;98718.66;5092346;28;20024;-52
2023/08/02 09:22:07;;;;;;;2.85;2.65;;;;;;;18.47;100.00;98740.75;5092112;28;20130;-54
2023/08/02 09:24:35;;;;;;;3.70;2.80;;;;;;;18.71;100.00;98762.31;5091122;28;20024;-53
2023/08/02 09:27:00;;;;;;;3.03;2.83;;;;;;;18.96;100.00;98761.59;5092214;28;20122;-52
2023/08/02 09:29:42;;;;;;;4.13;2.72;;;;;;;18.85;100.00;98703.19;5092264;28;20060;-52
2023/08/02 09:32:07;;;;;;;2.83;2.47;;;;;;;19.30;100.00;98760.88;5093934;28;20032;-52
2023/08/02 09:34:53;;;;;;;5.97;2.30;;;;;;;19.25;100.00;98717.81;5112559;28;20450;-57
2023/08/02 09:37:35;;;;;;;4.18;1.90;;;;;;;19.66;100.00;98767.84;5091445;28;20035;-52
2023/08/02 09:40:04;;;;;;;2.10;1.90;;;;;;;19.80;100.00;98777.09;5073253;28;20039;-51
2023/08/02 09:42:29;;;;;;;2.67;2.10;;;;;;;19.46;100.00;98718.34;5091341;28;20114;-51
2023/08/02 09:44:55;;;;;;;2.35;1.40;;;;;;;19.92;100.00;98790.03;5091584;28;20060;-54
2023/08/02 09:47:21;;;;;;;2.80;1.33;;;;;;;19.61;100.00;98732.81;5092494;28;20043;-58
2023/08/02 09:50:06;;;;;;;6.05;1.60;;;;;;;20.02;100.00;98789.94;5078519;28;20036;-54
2023/08/02 09:52:32;;;;;;;4.68;1.73;;;;;;;19.78;100.00;98709.69;5116390;28;20028;-51
2023/08/02 09:54:57;;;;;;;5.25;2.00;;;;;;;20.27;100.00;98785.56;5115468;28;20083;-55
2023/08/02 09:57:25;;;;;;;7.60;2.15;;;;;;;20.32;100.00;98776.06;5098095;28;20035;-55
2023/08/02 09:59:52;;;;;;;4.55;2.00;;;;;;;20.82;100.00;98785.91;5098223;28;20111;-50
2023/08/02 10:02:26;;;;;;;6.13;2.33;;;;;;;21.76;100.00;98742.47;5116563;28;20035;-53
2023/08/02 10:04:55;;;;;;;6.65;2.33;;;;;;;22.44;100.00;98723.97;5116472;28;20027;-56
2023/08/02 10:07:21;;;;;;;4.55;2.00;;;;;;;22.76;100.00;98789.22;5116257;28;20531;-54
2023/08/02 10:09:48;;;;;;;6.78;2.08;;;;;;;22.43;100.00;98732.22;5097979;28;20094;-55
2023/08/02 10:12:16;;;;;;;5.97;1.58;;;;;;;22.23;100.00;98736.34;5097863;28;20441;-52
2023/08/02 10:14:42;;;;;;;4.70;1.90;;;;;;;22.10;100.00;98715.44;5098454;28;20118;-56
2023/08/02 10:17:09;;;;;;;5.80;2.17;;;;;;;22.76;100.00;98731.06;5098218;28;20103;-52
2023/08/02 10:19:35;;;;;;;7.70;2.35;;;;;;;23.75;100.00;98751.56;5116175;28;20370;-52
2023/08/02 10:22:03;;;;;;;4.75;2.28;;;;;;;24.50;100.00;98777.25;5098030;28;20543;-51
2023/08/02 10:24:29;;;;;;;7.03;1.67;;;;;;;24.99;100.00;98731.69;5097856;28;20393;-56
2023/08/02 10:26:56;;;;;;;7.03;2.00;;;;;;;25.71;100.00;98782.72;5115905;28;20096;-54
2023/08/02 10:29:25;;;;;;;6.40;1.80;;;;;;;25.35;100.00;98803.50;5097985;28;20042;-55
2023/08/02 10:31:51;;;;;;;6.20;2.15;;;;;;;24.33;100.00;98737.31;5097876;28;20027;-55
2023/08/02 10:34:46;;;;;;;9.35;2.25;;;;;;;23.96;100.00;98789.31;5115876;28;20040;-52
2023/08/02 10:37:12;;;;;;;9.60;1.98;;;;;;;23.06;100.00;98732.00;5113246;28;20501;-56
2023/08/02 10:39:46;;;;;;;10.63;2.42;;;;;;;22.97;100.00;98784.06;5115642;28;20028;-52
2023/08/02 10:42:12;;;;;;;8.02;2.20;;;;;;;23.16;100.00;98764.81;5115548;28;20102;-52
2023/08/02 10:44:57;;;;;;;8.02;2.13;;;;;;;24.20;100.00;98772.09;5097341;28;20039;-57
2023/08/02 10:47:30;;;;;;;5.80;1.30;;;;;;;24.98;100.00;98781.19;5115121;28;20032;-55
2023/08/02 10:49:56;;;;;;;5.78;1.40;;;;;;;25.53;100.00;98763.50;5115431;28;20114;-51
2023/08/02 10:52:25;;;;;;;5.45;1.65;;;;;;;26.17;100.00;98804.63;5115666;28;20554;-50
2023/08/02 10:55:02;;;;;;;4.50;1.30;;;;;;;26.38;100.00;98815.34;5115607;28;20172;-52
2023/08/02 10:57:28;;;;;;;5.85;1.30;;;;;;;26.25;100.00;98805.31;5115481;28;20042;-54
2023/08/02 10:59:53;;;;;;;8.25;1.85;;;;;;;26.07;100.00;98744.78;5096739;28;20032;-53
2023/08/02 11:02:18;;;;;;;5.75;1.33;;;;;;;25.91;100.00;98790.94;5115357;28;20517;-51
2023/08/02 11:04:46;;;;;;;7.68;1.92;;;;;;;25.49;100.00;98808.00;5115199;28;20032;-53
2023/08/02 11:07:12;;;;;;;9.07;1.70;;;;;;;25.31;100.00;98800.34;5114894;28;20367;-50
2023/08/02 11:09:37;;;;;;;8.10;1.60;;;;;;;24.24;100.00;98684.66;5115430;28;20038;-56
2023/08/02 11:12:19;;;;;;;5.53;2.05;;;;;;;24.34;100.00;98800.84;5115086;28;20418;-53
2023/08/02 11:14:46;;;;;;;10.73;2.05;;;;;;;23.61;100.00;98734.41;5115149;28;20020;-56
2023/08/02 11:17:19;;;;;;;13.32;2.33;;;;;;;23.93;100.00;98712.56;5115243;28;20157;-56
2023/08/02 11:19:47;;;;;;;5.45;1.92;;;;;;;24.81;100.00;98778.91;5115137;28;20073;-52